aviador You're here:

OBBI Decoded Metar

BAHRAIN in BAHRAIN
Report Time2017-06-22 21:30:00
UTC Time2017-06-22 22:17:19
Flight Rules vfr VFR
Wind330° at 19 kt
W.Decomp.*RWY 30: 16.8 kt HW 8.9 kt RCW
W.Rank330° ranks 1
Current wind is above 330° avg. (12.3)
Visibility9999 m
Phenomena:N/A
Clouds:N/A
Expected CloudBase > 4,800 ft AGL from Temp-Dew spread
CeilingNone
Temp34°C (ISA +19)
Dew Point22°C (49% RH)
Heat Index38.1°C
AAT31.7°C
QNH1000 hPa
Density Alt2,953 ft
Elevation7 ft
Report Wrong Elevation
Raw Report
OBBI 222130Z 33019KT CAVOK 34/22 Q1000 NOSIG=

Extra information for OBBI:More info

Metar Taf Metar & Taf Last 4 Metars F.Rules Stats Wind Profile Meteogram Temp Stats Airport Information Weather charts Add Link Nearby VenuesMetar ALERT Operation Metar Decoded Social comments